Time,TemperatureF,DewpointF,PressureIn,WindDirection,WindDirectionDegrees,WindSpeedMPH,WindSpeedGustMPH,Humidity,HourlyPrecipIn,Conditions,Clouds,dailyrainin,SoftwareType,DateUTC
2013-01-19 00:00:00,33.1,24.7,30.52,SW,225,0.0,1.0,71,0.00,,OVC,0.00,VWS V14.01,2013-01-19 05:00:00,
2013-01-19 01:00:00,32.6,22.9,30.51,SW,225,0.0,2.0,67,0.00,,OVC,0.00,VWS V14.01,2013-01-19 06:00:00,
2013-01-19 02:00:00,31.8,23.1,30.51,SW,225,0.0,2.0,70,0.00,,OVC,0.00,VWS V14.01,2013-01-19 07:00:00,
2013-01-19 03:00:00,31.7,23.0,30.52,SW,225,0.0,2.0,70,0.00,,OVC,0.00,VWS V14.01,2013-01-19 08:00:00,
2013-01-19 04:00:00,31.3,23.3,30.51,SW,225,0.0,1.0,72,0.00,,OVC,0.00,VWS V14.01,2013-01-19 09:00:00,
2013-01-19 05:00:00,30.7,22.4,30.50,SW,225,0.0,1.0,71,0.00,,OVC,0.00,VWS V14.01,2013-01-19 10:00:00,
2013-01-19 06:00:00,31.1,21.4,30.49,SW,225,0.0,1.0,67,0.00,,OVC,0.00,VWS V14.01,2013-01-19 11:00:00,
2013-01-19 07:00:00,30.6,21.3,30.48,SW,225,0.0,1.0,68,0.00,,OVC,0.00,VWS V14.01,2013-01-19 12:00:00,
2013-01-19 08:00:00,30.9,21.2,30.48,WSW,248,0.0,4.0,67,0.00,,OVC,0.00,VWS V14.01,2013-01-19 13:00:00,
2013-01-19 09:00:00,35.9,24.2,30.48,SW,228,0.0,2.0,62,0.00,,OVC,0.00,VWS V14.01,2013-01-19 14:00:00,
2013-01-19 09:01:00,31.8,20.7,30.48,WSW,240,0.0,0.0,63,0.00,,OVC,0.00,VWS V14.01,2013-01-19 14:01:00,
2013-01-19 09:06:00,31.9,20.4,30.48,WSW,240,0.0,0.0,62,0.00,,OVC,0.00,VWS V14.01,2013-01-19 14:06:00,
2013-01-19 09:11:00,32.1,20.9,30.48,WSW,240,0.0,0.0,63,0.00,,OVC,0.00,VWS V14.01,2013-01-19 14:11:00,
2013-01-19 09:16:00,32.2,21.4,30.48,WSW,240,0.0,0.0,64,0.00,,OVC,0.00,VWS V14.01,2013-01-19 14:16:00,
2013-01-19 09:21:00,32.4,22.0,30.48,WSW,240,0.0,1.0,65,0.00,,OVC,0.00,VWS V14.01,2013-01-19 14:21:00,
2013-01-19 09:27:00,32.6,22.5,30.48,SW,228,1.0,2.0,66,0.00,,OVC,0.00,VWS V14.01,2013-01-19 14:27:00,
2013-01-19 09:32:00,32.9,23.2,30.48,SW,228,0.0,2.0,67,0.00,,OVC,0.00,VWS V14.01,2013-01-19 14:32:00,
2013-01-19 09:37:00,33.3,23.9,30.48,SW,228,0.0,2.0,68,0.00,,OVC,0.00,VWS V14.01,2013-01-19 14:37:00,
2013-01-19 09:42:00,33.7,23.9,30.48,SW,228,0.0,2.0,67,0.00,,OVC,0.00,VWS V14.01,2013-01-19 14:42:00,
2013-01-19 09:47:00,34.2,24.0,30.48,SW,228,0.0,2.0,66,0.00,,OVC,0.00,VWS V14.01,2013-01-19 14:47:00,
2013-01-19 09:52:00,35.0,24.4,30.48,SW,228,0.0,2.0,65,0.00,,OVC,0.00,VWS V14.01,2013-01-19 14:52:00,
2013-01-19 09:57:00,35.6,24.3,30.48,SW,228,0.0,2.0,63,0.00,,OVC,0.00,VWS V14.01,2013-01-19 14:57:00,
2013-01-19 10:00:00,41.1,22.9,30.46,SSW,211,0.0,4.0,48,0.00,,OVC,0.00,VWS V14.01,2013-01-19 15:00:00,
2013-01-19 10:02:00,36.2,24.1,30.48,SW,228,0.0,0.0,61,0.00,,OVC,0.00,VWS V14.01,2013-01-19 15:02:00,
2013-01-19 10:07:00,36.7,24.1,30.48,SW,228,0.0,1.0,60,0.00,,OVC,0.00,VWS V14.01,2013-01-19 15:07:00,
2013-01-19 10:12:00,37.2,23.8,30.48,SW,228,0.0,1.0,58,0.00,,OVC,0.00,VWS V14.01,2013-01-19 15:12:00,
2013-01-19 10:18:00,37.8,24.0,30.47,SW,228,0.0,1.0,57,0.00,,OVC,0.00,VWS V14.01,2013-01-19 15:18:00,
2013-01-19 10:23:00,38.3,24.0,30.47,SW,228,0.0,1.0,56,0.00,,OVC,0.00,VWS V14.01,2013-01-19 15:23:00,
2013-01-19 10:28:00,38.8,23.1,30.47,North,356,0.0,3.0,53,0.00,,OVC,0.00,VWS V14.01,2013-01-19 15:28:00,
2013-01-19 10:33:00,39.4,23.2,30.47,SSW,192,1.0,3.0,52,0.00,,OVC,0.00,VWS V14.01,2013-01-19 15:33:00,
2013-01-19 10:38:00,39.9,22.3,30.47,SW,227,0.0,4.0,49,0.00,,OVC,0.00,VWS V14.01,2013-01-19 15:38:00,
2013-01-19 10:43:00,40.2,22.6,30.47,SW,227,0.0,4.0,49,0.00,,OVC,0.00,VWS V14.01,2013-01-19 15:43:00,
2013-01-19 10:48:00,40.5,22.9,30.47,SW,227,0.0,4.0,49,0.00,,OVC,0.00,VWS V14.01,2013-01-19 15:48:00,
2013-01-19 10:53:00,40.8,22.6,30.47,SW,227,1.0,4.0,48,0.00,,OVC,0.00,VWS V14.01,2013-01-19 15:53:00,
2013-01-19 10:58:00,41.0,22.8,30.47,SSW,211,0.0,4.0,48,0.00,,OVC,0.00,VWS V14.01,2013-01-19 15:58:00,
2013-01-19 11:00:00,42.2,28.1,30.43,SW,228,0.0,3.0,57,0.00,,OVC,0.00,VWS V14.01,2013-01-19 16:00:00,
2013-01-19 11:03:00,41.2,23.5,30.46,SSW,211,1.0,2.0,49,0.00,,OVC,0.00,VWS V14.01,2013-01-19 16:03:00,
2013-01-19 11:09:00,41.3,23.1,30.46,SSW,195,1.0,3.0,48,0.00,,OVC,0.00,VWS V14.01,2013-01-19 16:09:00,
2013-01-19 11:14:00,41.5,24.3,30.46,WSW,246,0.0,3.0,50,0.00,,OVC,0.00,VWS V14.01,2013-01-19 16:14:00,
2013-01-19 11:19:00,41.6,26.2,30.45,WSW,246,0.0,3.0,54,0.00,,OVC,0.00,VWS V14.01,2013-01-19 16:19:00,
2013-01-19 11:24:00,41.8,27.3,30.45,WSW,246,0.0,3.0,56,0.00,,OVC,0.00,VWS V14.01,2013-01-19 16:24:00,
2013-01-19 11:29:00,41.7,27.2,30.45,WSW,246,0.0,3.0,56,0.00,,OVC,0.00,VWS V14.01,2013-01-19 16:29:00,
2013-01-19 11:34:00,41.8,26.8,30.44,NNW,332,0.0,3.0,55,0.00,,OVC,0.00,VWS V14.01,2013-01-19 16:34:00,
2013-01-19 11:39:00,41.8,27.3,30.44,NNW,332,0.0,3.0,56,0.00,,OVC,0.00,VWS V14.01,2013-01-19 16:39:00,
2013-01-19 11:44:00,42.0,27.5,30.44,West,270,1.0,3.0,56,0.00,,OVC,0.00,VWS V14.01,2013-01-19 16:44:00,
2013-01-19 11:49:00,42.1,28.0,30.44,SW,228,0.0,3.0,57,0.00,,OVC,0.00,VWS V14.01,2013-01-19 16:49:00,
2013-01-19 11:54:00,42.3,28.6,30.44,SW,228,0.0,3.0,58,0.00,,OVC,0.00,VWS V14.01,2013-01-19 16:54:00,
2013-01-19 11:59:00,42.2,28.5,30.43,SW,228,1.0,3.0,58,0.00,,OVC,0.00,VWS V14.01,2013-01-19 16:59:00,
2013-01-19 12:00:00,45.1,29.9,30.38,ENE,63,2.0,6.0,55,0.00,,OVC,0.00,VWS V14.01,2013-01-19 17:00:00,
2013-01-19 12:04:00,42.4,28.3,30.43,West,271,2.0,4.0,57,0.00,,OVC,0.00,VWS V14.01,2013-01-19 17:04:00,
2013-01-19 12:09:00,42.4,28.3,30.42,SW,227,3.0,6.0,57,0.00,,OVC,0.00,VWS V14.01,2013-01-19 17:09:00,
2013-01-19 12:15:00,42.5,27.9,30.41,WSW,257,1.0,6.0,56,0.00,,OVC,0.00,VWS V14.01,2013-01-19 17:15:00,
2013-01-19 12:20:00,42.7,28.1,30.41,WSW,238,2.0,6.0,56,0.00,,OVC,0.00,VWS V14.01,2013-01-19 17:20:00,
2013-01-19 12:25:00,43.2,28.1,30.41,SW,224,3.0,6.0,55,0.00,,OVC,0.00,VWS V14.01,2013-01-19 17:25:00,
2013-01-19 12:32:00,44.0,28.9,30.40,SSW,209,0.0,6.0,55,0.00,,OVC,0.00,VWS V14.01,2013-01-19 17:32:00,
2013-01-19 12:37:00,44.3,29.6,30.40,East,98,0.0,6.0,56,0.00,,OVC,0.00,VWS V14.01,2013-01-19 17:37:00,
2013-01-19 12:42:00,44.4,28.8,30.39,ESE,103,1.0,6.0,54,0.00,,OVC,0.00,VWS V14.01,2013-01-19 17:42:00,
2013-01-19 12:47:00,44.3,28.3,30.39,NE,51,0.0,6.0,53,0.00,,OVC,0.00,VWS V14.01,2013-01-19 17:47:00,
2013-01-19 12:52:00,44.5,28.9,30.38,SW,233,3.0,6.0,54,0.00,,OVC,0.00,VWS V14.01,2013-01-19 17:52:00,
2013-01-19 12:59:00,45.0,29.8,30.38,SW,233,0.0,6.0,55,0.00,,OVC,0.00,VWS V14.01,2013-01-19 17:59:00,
2013-01-19 13:00:00,47.6,29.9,30.34,South,178,2.0,9.0,50,0.00,,OVC,0.00,VWS V14.01,2013-01-19 18:00:00,
2013-01-19 13:05:00,45.5,29.4,30.37,SSW,201,1.0,3.0,53,0.00,,OVC,0.00,VWS V14.01,2013-01-19 18:05:00,
2013-01-19 13:12:00,46.0,30.8,30.37,SSE,162,0.0,3.0,55,0.00,,OVC,0.00,VWS V14.01,2013-01-19 18:12:00,
2013-01-19 13:17:00,46.3,29.6,30.37,NW,323,1.0,7.0,52,0.00,,OVC,0.00,VWS V14.01,2013-01-19 18:17:00,
2013-01-19 13:22:00,46.5,30.3,30.36,NNW,333,5.0,7.0,53,0.00,,OVC,0.00,VWS V14.01,2013-01-19 18:22:00,
2013-01-19 13:29:00,46.6,29.9,30.36,West,271,0.0,7.0,52,0.00,,OVC,0.00,VWS V14.01,2013-01-19 18:29:00,
2013-01-19 13:34:00,47.1,30.9,30.36,SW,233,2.0,7.0,53,0.00,,OVC,0.00,VWS V14.01,2013-01-19 18:34:00,
2013-01-19 13:39:00,47.6,28.9,30.36,WSW,237,2.0,7.0,48,0.00,,OVC,0.00,VWS V14.01,2013-01-19 18:39:00,
2013-01-19 13:46:00,47.5,29.3,30.35,SW,221,1.0,7.0,49,0.00,,OVC,0.00,VWS V14.01,2013-01-19 18:46:00,
2013-01-19 13:52:00,47.4,28.2,30.35,SW,215,2.0,9.0,47,0.00,,OVC,0.00,VWS V14.01,2013-01-19 18:52:00,
2013-01-19 13:59:00,47.5,30.3,30.34,SSW,200,0.0,9.0,51,0.00,,OVC,0.00,VWS V14.01,2013-01-19 18:59:00,
2013-01-19 14:00:00,48.3,29.5,30.32,WSW,242,0.0,7.0,48,0.00,,OVC,0.00,VWS V14.01,2013-01-19 19:00:00,
2013-01-19 14:04:00,47.8,28.6,30.34,SW,221,2.0,6.0,47,0.00,,OVC,0.00,VWS V14.01,2013-01-19 19:04:00,
2013-01-19 14:09:00,47.9,29.2,30.34,South,171,0.0,6.0,48,0.00,,OVC,0.00,VWS V14.01,2013-01-19 19:09:00,
2013-01-19 14:15:00,48.1,29.9,30.33,SW,228,2.0,6.0,49,0.00,,OVC,0.00,VWS V14.01,2013-01-19 19:15:00,
2013-01-19 14:20:00,48.5,29.2,30.33,SSW,204,0.0,6.0,47,0.00,,OVC,0.00,VWS V14.01,2013-01-19 19:20:00,
2013-01-19 14:25:00,48.7,30.9,30.33,SSW,213,0.0,6.0,50,0.00,,OVC,0.00,VWS V14.01,2013-01-19 19:25:00,
2013-01-19 14:30:00,48.8,30.5,30.33,NNW,341,0.0,6.0,49,0.00,,OVC,0.00,VWS V14.01,2013-01-19 19:30:00,
2013-01-19 14:37:00,48.7,29.4,30.32,West,269,2.0,6.0,47,0.00,,OVC,0.00,VWS V14.01,2013-01-19 19:37:00,
2013-01-19 14:42:00,48.3,29.5,30.32,SSW,203,4.0,7.0,48,0.00,,OVC,0.00,VWS V14.01,2013-01-19 19:42:00,
2013-01-19 14:47:00,48.1,29.9,30.32,SSW,196,3.0,7.0,49,0.00,,OVC,0.00,VWS V14.01,2013-01-19 19:47:00,
2013-01-19 14:54:00,48.2,30.0,30.32,WSW,244,3.0,7.0,49,0.00,,OVC,0.00,VWS V14.01,2013-01-19 19:54:00,
2013-01-19 14:59:00,48.4,29.6,30.32,WSW,242,0.0,7.0,48,0.00,,OVC,0.00,VWS V14.01,2013-01-19 19:59:00,
2013-01-19 15:00:00,48.7,28.3,30.30,SSW,203,0.0,7.0,45,0.00,,OVC,0.00,VWS V14.01,2013-01-19 20:00:00,
2013-01-19 15:05:00,48.5,29.7,30.31,SSW,213,2.0,4.0,48,0.00,,OVC,0.00,VWS V14.01,2013-01-19 20:05:00,
2013-01-19 15:11:00,48.7,29.9,30.31,West,270,1.0,5.0,48,0.00,,OVC,0.00,VWS V14.01,2013-01-19 20:11:00,
2013-01-19 15:16:00,48.6,28.8,30.31,NNW,331,1.0,7.0,46,0.00,,OVC,0.00,VWS V14.01,2013-01-19 20:16:00,
2013-01-19 15:21:00,48.4,29.1,30.31,SSW,200,0.0,7.0,47,0.00,,OVC,0.00,VWS V14.01,2013-01-19 20:21:00,
2013-01-19 15:28:00,48.7,29.4,30.31,SSW,197,1.0,7.0,47,0.00,,OVC,0.00,VWS V14.01,2013-01-19 20:28:00,
2013-01-19 15:33:00,48.9,30.6,30.31,ESE,117,1.0,7.0,49,0.00,,OVC,0.00,VWS V14.01,2013-01-19 20:33:00,
2013-01-19 15:38:00,48.7,28.3,30.31,SW,219,2.0,7.0,45,0.00,,OVC,0.00,VWS V14.01,2013-01-19 20:38:00,
2013-01-19 15:43:00,48.8,28.4,30.31,SSW,202,4.0,7.0,45,0.00,,OVC,0.00,VWS V14.01,2013-01-19 20:43:00,
2013-01-19 15:52:00,48.8,29.0,30.31,WNW,293,7.0,7.0,46,0.00,,OVC,0.00,VWS V14.01,2013-01-19 20:52:00,
2013-01-19 15:57:00,48.7,27.8,30.30,SW,224,1.0,7.0,44,0.00,,OVC,0.00,VWS V14.01,2013-01-19 20:57:00,
2013-01-19 16:00:00,45.9,27.8,30.29,WSW,237,6.0,8.0,49,0.00,,OVC,0.00,VWS V14.01,2013-01-19 21:00:00,
2013-01-19 16:03:00,48.7,28.3,30.30,SSW,203,0.0,1.0,45,0.00,,OVC,0.00,VWS V14.01,2013-01-19 21:03:00,
2013-01-19 16:08:00,48.8,27.9,30.30,West,265,1.0,5.0,44,0.00,,OVC,0.00,VWS V14.01,2013-01-19 21:08:00,
2013-01-19 16:13:00,48.6,27.1,30.30,SSW,206,1.0,7.0,43,0.00,,OVC,0.00,VWS V14.01,2013-01-19 21:13:00,
2013-01-19 16:19:00,48.3,27.4,30.30,WSW,248,0.0,7.0,44,0.00,,OVC,0.00,VWS V14.01,2013-01-19 21:19:00,
2013-01-19 16:24:00,47.8,28.0,30.30,South,186,0.0,7.0,46,0.00,,OVC,0.00,VWS V14.01,2013-01-19 21:24:00,
2013-01-19 16:30:00,47.4,28.7,30.30,SW,216,2.0,7.0,48,0.00,,OVC,0.00,VWS V14.01,2013-01-19 21:30:00,
2013-01-19 16:38:00,47.2,29.0,30.30,West,264,0.0,7.0,49,0.00,,OVC,0.00,VWS V14.01,2013-01-19 21:38:00,
2013-01-19 16:43:00,47.0,29.3,30.30,SW,222,0.0,7.0,50,0.00,,OVC,0.00,VWS V14.01,2013-01-19 21:43:00,
2013-01-19 16:49:00,46.7,28.6,30.30,SW,217,2.0,7.0,49,0.00,,OVC,0.00,VWS V14.01,2013-01-19 21:49:00,
2013-01-19 16:54:00,46.3,28.7,30.30,SSW,196,3.0,7.0,50,0.00,,OVC,0.00,VWS V14.01,2013-01-19 21:54:00,
2013-01-19 16:59:00,46.0,27.9,30.29,SSW,211,0.0,7.0,49,0.00,,OVC,0.00,VWS V14.01,2013-01-19 21:59:00,
2013-01-19 17:00:00,41.9,28.2,30.29,South,180,1.0,7.0,58,0.00,,OVC,0.00,VWS V14.01,2013-01-19 22:00:00,
2013-01-19 17:04:00,45.6,28.5,30.29,WSW,250,0.0,7.0,51,0.00,,OVC,0.00,VWS V14.01,2013-01-19 22:04:00,
2013-01-19 18:00:00,41.9,28.2,30.29,South,180,1.0,7.0,58,0.00,,OVC,0.00,VWS V14.01,2013-01-19 23:00:00,
2013-01-19 19:00:00,40.4,27.6,30.30,SW,225,1.0,6.0,60,0.00,,OVC,0.00,VWS V14.01,2013-01-20 00:00:00,
2013-01-19 20:00:00,39.3,27.8,30.30,SSW,202,1.0,6.0,63,0.00,,OVC,0.00,VWS V14.01,2013-01-20 01:00:00,
2013-01-19 21:00:00,38.3,26.8,30.28,South,180,0.0,3.0,63,0.00,,OVC,0.00,VWS V14.01,2013-01-20 02:00:00,
2013-01-19 22:00:00,37.9,26.5,30.26,SSW,202,0.0,3.0,63,0.00,,OVC,0.00,VWS V14.01,2013-01-20 03:00:00,
2013-01-19 23:00:00,38.0,27.3,30.24,South,180,0.0,7.0,65,0.00,,OVC,0.00,VWS V14.01,2013-01-20 04:00:00,